sensor_id;sensor_type;location;lat;lon;timestamp;P1;durP1;ratioP1;P2;durP2;ratioP2
679;SDS011;322;48.846;9.230;2023-06-14T00:00:12;7.43;;;5.57;;
679;SDS011;322;48.846;9.230;2023-06-14T00:02:41;10.73;;;6.10;;
679;SDS011;322;48.846;9.230;2023-06-14T00:05:10;11.77;;;6.20;;
679;SDS011;322;48.846;9.230;2023-06-14T00:07:40;10.80;;;7.00;;
679;SDS011;322;48.846;9.230;2023-06-14T00:10:10;8.00;;;6.33;;
679;SDS011;322;48.846;9.230;2023-06-14T00:12:39;8.80;;;6.90;;
679;SDS011;322;48.846;9.230;2023-06-14T00:15:07;8.03;;;7.20;;
679;SDS011;322;48.846;9.230;2023-06-14T00:17:37;7.23;;;6.30;;
679;SDS011;322;48.846;9.230;2023-06-14T00:20:07;7.53;;;6.13;;
679;SDS011;322;48.846;9.230;2023-06-14T00:22:36;9.00;;;6.30;;
679;SDS011;322;48.846;9.230;2023-06-14T00:25:05;6.87;;;6.27;;
679;SDS011;322;48.846;9.230;2023-06-14T00:27:53;8.80;;;6.93;;
679;SDS011;322;48.846;9.230;2023-06-14T00:30:22;9.50;;;6.97;;
679;SDS011;322;48.846;9.230;2023-06-14T00:32:51;6.70;;;5.87;;
679;SDS011;322;48.846;9.230;2023-06-14T00:35:19;7.90;;;7.10;;
679;SDS011;322;48.846;9.230;2023-06-14T00:37:47;7.20;;;5.80;;
679;SDS011;322;48.846;9.230;2023-06-14T00:40:15;7.30;;;5.73;;
679;SDS011;322;48.846;9.230;2023-06-14T00:42:44;6.10;;;5.50;;
679;SDS011;322;48.846;9.230;2023-06-14T00:45:12;7.07;;;6.47;;
679;SDS011;322;48.846;9.230;2023-06-14T00:47:40;7.00;;;6.37;;
679;SDS011;322;48.846;9.230;2023-06-14T00:50:10;6.93;;;6.00;;
679;SDS011;322;48.846;9.230;2023-06-14T00:52:39;7.97;;;6.00;;
679;SDS011;322;48.846;9.230;2023-06-14T00:55:08;7.20;;;6.50;;
679;SDS011;322;48.846;9.230;2023-06-14T00:57:36;8.90;;;6.70;;
679;SDS011;322;48.846;9.230;2023-06-14T01:00:07;6.67;;;6.07;;
679;SDS011;322;48.846;9.230;2023-06-14T01:02:36;8.20;;;6.50;;
679;SDS011;322;48.846;9.230;2023-06-14T01:05:05;8.37;;;7.03;;
679;SDS011;322;48.846;9.230;2023-06-14T01:07:40;6.87;;;6.13;;
679;SDS011;322;48.846;9.230;2023-06-14T01:10:34;8.10;;;6.90;;
679;SDS011;322;48.846;9.230;2023-06-14T01:13:10;7.70;;;6.90;;
679;SDS011;322;48.846;9.230;2023-06-14T01:15:43;6.77;;;6.17;;
679;SDS011;322;48.846;9.230;2023-06-14T01:18:12;7.33;;;6.63;;
679;SDS011;322;48.846;9.230;2023-06-14T01:20:44;8.70;;;7.90;;
679;SDS011;322;48.846;9.230;2023-06-14T01:23:17;10.87;;;9.13;;
679;SDS011;322;48.846;9.230;2023-06-14T01:25:46;9.03;;;8.10;;
679;SDS011;322;48.846;9.230;2023-06-14T01:28:19;8.10;;;7.13;;
679;SDS011;322;48.846;9.230;2023-06-14T01:30:49;8.07;;;7.27;;
679;SDS011;322;48.846;9.230;2023-06-14T01:33:21;11.90;;;8.40;;
679;SDS011;322;48.846;9.230;2023-06-14T01:35:51;7.27;;;6.60;;
679;SDS011;322;48.846;9.230;2023-06-14T01:38:22;9.10;;;7.50;;
679;SDS011;322;48.846;9.230;2023-06-14T01:40:52;8.13;;;7.40;;
679;SDS011;322;48.846;9.230;2023-06-14T01:43:22;7.43;;;6.73;;
679;SDS011;322;48.846;9.230;2023-06-14T01:45:52;7.37;;;6.57;;
679;SDS011;322;48.846;9.230;2023-06-14T01:48:22;7.53;;;6.23;;
679;SDS011;322;48.846;9.230;2023-06-14T01:50:51;9.90;;;6.53;;
679;SDS011;322;48.846;9.230;2023-06-14T01:53:19;9.30;;;6.90;;
679;SDS011;322;48.846;9.230;2023-06-14T01:55:49;7.77;;;6.90;;
679;SDS011;322;48.846;9.230;2023-06-14T01:58:20;11.43;;;6.70;;
679;SDS011;322;48.846;9.230;2023-06-14T02:00:48;8.30;;;6.70;;
679;SDS011;322;48.846;9.230;2023-06-14T02:03:17;8.50;;;7.67;;
679;SDS011;322;48.846;9.230;2023-06-14T02:05:45;13.40;;;7.27;;
679;SDS011;322;48.846;9.230;2023-06-14T02:08:14;7.10;;;6.50;;
679;SDS011;322;48.846;9.230;2023-06-14T02:10:43;7.70;;;6.90;;
679;SDS011;322;48.846;9.230;2023-06-14T02:13:11;7.00;;;6.30;;
679;SDS011;322;48.846;9.230;2023-06-14T02:15:39;8.47;;;7.30;;
679;SDS011;322;48.846;9.230;2023-06-14T02:18:10;9.43;;;8.40;;
679;SDS011;322;48.846;9.230;2023-06-14T02:20:38;8.23;;;7.00;;
679;SDS011;322;48.846;9.230;2023-06-14T02:23:06;7.87;;;7.17;;
679;SDS011;322;48.846;9.230;2023-06-14T02:25:34;8.13;;;7.43;;
679;SDS011;322;48.846;9.230;2023-06-14T02:28:04;8.20;;;7.37;;
679;SDS011;322;48.846;9.230;2023-06-14T02:30:32;8.23;;;7.50;;
679;SDS011;322;48.846;9.230;2023-06-14T02:33:00;7.43;;;6.60;;
679;SDS011;322;48.846;9.230;2023-06-14T02:35:28;7.13;;;6.53;;
679;SDS011;322;48.846;9.230;2023-06-14T02:37:57;8.67;;;7.87;;
679;SDS011;322;48.846;9.230;2023-06-14T02:40:25;8.03;;;7.23;;
679;SDS011;322;48.846;9.230;2023-06-14T02:42:53;7.47;;;6.80;;
679;SDS011;322;48.846;9.230;2023-06-14T02:45:22;7.20;;;6.60;;
679;SDS011;322;48.846;9.230;2023-06-14T02:47:51;8.07;;;7.40;;
679;SDS011;322;48.846;9.230;2023-06-14T02:50:19;7.67;;;6.87;;
679;SDS011;322;48.846;9.230;2023-06-14T02:52:50;8.70;;;7.77;;
679;SDS011;322;48.846;9.230;2023-06-14T02:55:18;10.43;;;7.20;;
679;SDS011;322;48.846;9.230;2023-06-14T02:57:46;8.30;;;6.83;;
679;SDS011;322;48.846;9.230;2023-06-14T03:00:16;8.97;;;8.17;;
679;SDS011;322;48.846;9.230;2023-06-14T03:02:46;9.00;;;7.90;;
679;SDS011;322;48.846;9.230;2023-06-14T03:05:15;9.07;;;8.20;;
679;SDS011;322;48.846;9.230;2023-06-14T03:07:42;8.50;;;7.70;;
679;SDS011;322;48.846;9.230;2023-06-14T03:10:11;11.70;;;8.40;;
679;SDS011;322;48.846;9.230;2023-06-14T03:12:40;13.60;;;9.20;;
679;SDS011;322;48.846;9.230;2023-06-14T03:15:08;10.03;;;9.03;;
679;SDS011;322;48.846;9.230;2023-06-14T03:17:39;9.60;;;7.93;;
679;SDS011;322;48.846;9.230;2023-06-14T03:20:13;8.43;;;7.63;;
679;SDS011;322;48.846;9.230;2023-06-14T03:22:42;11.03;;;8.37;;
679;SDS011;322;48.846;9.230;2023-06-14T03:25:12;8.73;;;7.63;;
679;SDS011;322;48.846;9.230;2023-06-14T03:27:41;9.20;;;8.37;;
679;SDS011;322;48.846;9.230;2023-06-14T03:30:09;13.77;;;8.20;;
679;SDS011;322;48.846;9.230;2023-06-14T03:32:38;8.47;;;7.67;;
679;SDS011;322;48.846;9.230;2023-06-14T03:35:06;10.70;;;9.70;;
679;SDS011;322;48.846;9.230;2023-06-14T03:37:36;9.63;;;8.63;;
679;SDS011;322;48.846;9.230;2023-06-14T03:40:04;9.80;;;8.80;;
679;SDS011;322;48.846;9.230;2023-06-14T03:42:33;9.87;;;8.90;;
679;SDS011;322;48.846;9.230;2023-06-14T03:45:01;8.40;;;7.60;;
679;SDS011;322;48.846;9.230;2023-06-14T03:47:29;9.77;;;8.70;;
679;SDS011;322;48.846;9.230;2023-06-14T03:49:57;12.83;;;8.20;;
679;SDS011;322;48.846;9.230;2023-06-14T03:52:26;9.27;;;7.80;;
679;SDS011;322;48.846;9.230;2023-06-14T03:54:56;10.13;;;8.73;;
679;SDS011;322;48.846;9.230;2023-06-14T03:57:29;10.33;;;7.97;;
679;SDS011;322;48.846;9.230;2023-06-14T03:59:57;8.80;;;7.90;;
679;SDS011;322;48.846;9.230;2023-06-14T04:02:25;10.00;;;8.60;;
679;SDS011;322;48.846;9.230;2023-06-14T04:04:55;8.83;;;7.63;;
679;SDS011;322;48.846;9.230;2023-06-14T04:07:23;8.90;;;8.00;;
679;SDS011;322;48.846;9.230;2023-06-14T04:09:51;8.60;;;7.80;;
679;SDS011;322;48.846;9.230;2023-06-14T04:12:20;10.50;;;7.93;;
679;SDS011;322;48.846;9.230;2023-06-14T04:14:57;8.17;;;7.30;;
679;SDS011;322;48.846;9.230;2023-06-14T04:17:46;9.20;;;8.30;;
679;SDS011;322;48.846;9.230;2023-06-14T04:20:14;8.77;;;7.97;;
679;SDS011;322;48.846;9.230;2023-06-14T04:22:43;8.70;;;7.90;;
679;SDS011;322;48.846;9.230;2023-06-14T04:25:11;7.67;;;6.90;;
679;SDS011;322;48.846;9.230;2023-06-14T04:27:41;8.17;;;7.47;;
679;SDS011;322;48.846;9.230;2023-06-14T04:30:10;8.27;;;7.47;;
679;SDS011;322;48.846;9.230;2023-06-14T04:32:39;10.80;;;8.17;;
679;SDS011;322;48.846;9.230;2023-06-14T04:35:09;9.60;;;8.60;;
679;SDS011;322;48.846;9.230;2023-06-14T04:37:37;9.37;;;8.23;;
679;SDS011;322;48.846;9.230;2023-06-14T04:40:09;8.30;;;7.40;;
679;SDS011;322;48.846;9.230;2023-06-14T04:42:38;9.50;;;8.50;;
679;SDS011;322;48.846;9.230;2023-06-14T04:45:09;9.20;;;8.37;;
679;SDS011;322;48.846;9.230;2023-06-14T04:47:37;10.20;;;8.10;;
679;SDS011;322;48.846;9.230;2023-06-14T04:50:07;8.67;;;7.90;;
679;SDS011;322;48.846;9.230;2023-06-14T04:52:36;11.20;;;8.20;;
679;SDS011;322;48.846;9.230;2023-06-14T04:55:04;8.50;;;7.70;;
679;SDS011;322;48.846;9.230;2023-06-14T04:57:33;9.53;;;8.37;;
679;SDS011;322;48.846;9.230;2023-06-14T05:00:01;8.80;;;7.90;;
679;SDS011;322;48.846;9.230;2023-06-14T05:02:33;9.50;;;7.90;;
679;SDS011;322;48.846;9.230;2023-06-14T05:05:02;9.23;;;8.10;;
679;SDS011;322;48.846;9.230;2023-06-14T05:07:33;9.23;;;8.33;;
679;SDS011;322;48.846;9.230;2023-06-14T05:10:01;9.50;;;8.50;;
679;SDS011;322;48.846;9.230;2023-06-14T05:12:29;8.93;;;8.13;;
679;SDS011;322;48.846;9.230;2023-06-14T05:14:57;9.63;;;8.63;;
679;SDS011;322;48.846;9.230;2023-06-14T05:17:25;9.23;;;8.30;;
679;SDS011;322;48.846;9.230;2023-06-14T05:19:56;10.20;;;9.30;;
679;SDS011;322;48.846;9.230;2023-06-14T05:22:24;9.00;;;8.10;;
679;SDS011;322;48.846;9.230;2023-06-14T05:24:52;10.67;;;8.83;;
679;SDS011;322;48.846;9.230;2023-06-14T05:27:20;9.17;;;7.67;;
679;SDS011;322;48.846;9.230;2023-06-14T05:29:48;10.47;;;9.47;;
679;SDS011;322;48.846;9.230;2023-06-14T05:32:16;9.37;;;8.47;;
679;SDS011;322;48.846;9.230;2023-06-14T05:34:44;13.40;;;9.23;;
679;SDS011;322;48.846;9.230;2023-06-14T05:37:13;11.97;;;8.97;;
679;SDS011;322;48.846;9.230;2023-06-14T05:39:42;11.00;;;9.90;;
679;SDS011;322;48.846;9.230;2023-06-14T05:42:10;9.80;;;8.97;;
679;SDS011;322;48.846;9.230;2023-06-14T05:44:38;11.03;;;9.93;;
679;SDS011;322;48.846;9.230;2023-06-14T05:47:06;10.13;;;8.67;;
679;SDS011;322;48.846;9.230;2023-06-14T05:49:34;10.80;;;9.00;;
679;SDS011;322;48.846;9.230;2023-06-14T05:52:02;9.37;;;8.40;;
679;SDS011;322;48.846;9.230;2023-06-14T05:54:32;9.53;;;8.63;;
679;SDS011;322;48.846;9.230;2023-06-14T05:57:00;10.03;;;9.13;;
679;SDS011;322;48.846;9.230;2023-06-14T05:59:29;9.63;;;8.60;;
679;SDS011;322;48.846;9.230;2023-06-14T06:01:57;9.37;;;8.43;;
679;SDS011;322;48.846;9.230;2023-06-14T06:04:25;9.97;;;8.87;;
679;SDS011;322;48.846;9.230;2023-06-14T06:06:53;10.43;;;9.47;;
679;SDS011;322;48.846;9.230;2023-06-14T06:09:21;12.10;;;9.17;;
679;SDS011;322;48.846;9.230;2023-06-14T06:11:51;12.30;;;9.03;;
679;SDS011;322;48.846;9.230;2023-06-14T06:14:19;11.23;;;8.20;;
679;SDS011;322;48.846;9.230;2023-06-14T06:16:47;9.13;;;7.50;;
679;SDS011;322;48.846;9.230;2023-06-14T06:19:15;12.10;;;8.40;;
679;SDS011;322;48.846;9.230;2023-06-14T06:21:45;11.17;;;7.80;;
679;SDS011;322;48.846;9.230;2023-06-14T06:24:13;10.93;;;8.57;;
679;SDS011;322;48.846;9.230;2023-06-14T06:26:42;8.13;;;7.47;;
679;SDS011;322;48.846;9.230;2023-06-14T06:29:11;9.00;;;7.20;;
679;SDS011;322;48.846;9.230;2023-06-14T06:31:39;7.70;;;7.00;;
679;SDS011;322;48.846;9.230;2023-06-14T06:34:07;7.63;;;6.93;;
679;SDS011;322;48.846;9.230;2023-06-14T06:36:35;11.33;;;7.50;;
679;SDS011;322;48.846;9.230;2023-06-14T06:39:03;8.70;;;7.90;;
679;SDS011;322;48.846;9.230;2023-06-14T06:41:37;7.40;;;6.70;;
679;SDS011;322;48.846;9.230;2023-06-14T06:44:06;7.70;;;7.00;;
679;SDS011;322;48.846;9.230;2023-06-14T06:46:37;6.93;;;6.23;;
679;SDS011;322;48.846;9.230;2023-06-14T06:49:07;7.10;;;6.30;;
679;SDS011;322;48.846;9.230;2023-06-14T06:51:35;8.07;;;7.37;;
679;SDS011;322;48.846;9.230;2023-06-14T06:54:04;9.63;;;7.13;;
679;SDS011;322;48.846;9.230;2023-06-14T06:56:32;9.80;;;6.87;;
679;SDS011;322;48.846;9.230;2023-06-14T06:59:00;10.30;;;6.80;;
679;SDS011;322;48.846;9.230;2023-06-14T07:01:28;7.80;;;7.00;;
679;SDS011;322;48.846;9.230;2023-06-14T07:03:57;7.83;;;6.57;;
679;SDS011;322;48.846;9.230;2023-06-14T07:06:25;12.03;;;6.77;;
679;SDS011;322;48.846;9.230;2023-06-14T07:08:54;6.70;;;6.03;;
679;SDS011;322;48.846;9.230;2023-06-14T07:11:27;8.03;;;6.03;;
679;SDS011;322;48.846;9.230;2023-06-14T07:13:55;12.40;;;6.17;;
679;SDS011;322;48.846;9.230;2023-06-14T07:16:23;6.93;;;6.43;;
679;SDS011;322;48.846;9.230;2023-06-14T07:18:52;6.97;;;6.40;;
679;SDS011;322;48.846;9.230;2023-06-14T07:21:21;8.17;;;6.60;;
679;SDS011;322;48.846;9.230;2023-06-14T07:23:52;8.20;;;6.93;;
679;SDS011;322;48.846;9.230;2023-06-14T07:26:21;8.43;;;6.97;;
679;SDS011;322;48.846;9.230;2023-06-14T07:28:49;7.20;;;6.60;;
679;SDS011;322;48.846;9.230;2023-06-14T07:31:19;6.73;;;6.13;;
679;SDS011;322;48.846;9.230;2023-06-14T07:33:47;7.60;;;6.90;;
679;SDS011;322;48.846;9.230;2023-06-14T07:36:16;9.87;;;7.50;;
679;SDS011;322;48.846;9.230;2023-06-14T07:38:45;9.73;;;6.87;;
679;SDS011;322;48.846;9.230;2023-06-14T07:41:13;8.60;;;7.03;;
679;SDS011;322;48.846;9.230;2023-06-14T07:43:41;6.70;;;6.10;;
679;SDS011;322;48.846;9.230;2023-06-14T07:46:09;8.47;;;7.07;;
679;SDS011;322;48.846;9.230;2023-06-14T07:48:40;11.27;;;6.93;;
679;SDS011;322;48.846;9.230;2023-06-14T07:51:08;10.73;;;7.53;;
679;SDS011;322;48.846;9.230;2023-06-14T07:53:36;7.13;;;6.17;;
679;SDS011;322;48.846;9.230;2023-06-14T07:56:06;7.17;;;6.47;;
679;SDS011;322;48.846;9.230;2023-06-14T07:58:34;6.60;;;5.90;;
679;SDS011;322;48.846;9.230;2023-06-14T08:01:02;8.20;;;5.93;;
679;SDS011;322;48.846;9.230;2023-06-14T08:03:32;8.80;;;6.00;;
679;SDS011;322;48.846;9.230;2023-06-14T08:06:01;6.80;;;6.10;;
679;SDS011;322;48.846;9.230;2023-06-14T08:08:30;7.10;;;6.40;;
679;SDS011;322;48.846;9.230;2023-06-14T08:10:58;7.23;;;6.40;;
679;SDS011;322;48.846;9.230;2023-06-14T08:13:28;10.80;;;6.10;;
679;SDS011;322;48.846;9.230;2023-06-14T08:15:56;8.20;;;6.27;;
679;SDS011;322;48.846;9.230;2023-06-14T08:18:24;7.13;;;6.00;;
679;SDS011;322;48.846;9.230;2023-06-14T08:20:53;7.50;;;5.90;;
679;SDS011;322;48.846;9.230;2023-06-14T08:23:21;6.33;;;5.80;;
679;SDS011;322;48.846;9.230;2023-06-14T08:25:50;6.97;;;6.33;;
679;SDS011;322;48.846;9.230;2023-06-14T08:28:24;7.23;;;6.53;;
679;SDS011;322;48.846;9.230;2023-06-14T08:30:53;12.07;;;6.23;;
679;SDS011;322;48.846;9.230;2023-06-14T08:33:21;8.60;;;6.13;;
679;SDS011;322;48.846;9.230;2023-06-14T08:35:49;10.67;;;7.00;;
679;SDS011;322;48.846;9.230;2023-06-14T08:38:18;6.97;;;5.93;;
679;SDS011;322;48.846;9.230;2023-06-14T08:40:47;6.80;;;6.20;;
679;SDS011;322;48.846;9.230;2023-06-14T08:43:17;6.67;;;5.73;;
679;SDS011;322;48.846;9.230;2023-06-14T08:45:47;6.60;;;5.97;;
679;SDS011;322;48.846;9.230;2023-06-14T08:48:20;8.07;;;6.33;;
679;SDS011;322;48.846;9.230;2023-06-14T08:50:51;7.20;;;6.60;;
679;SDS011;322;48.846;9.230;2023-06-14T08:53:28;8.03;;;6.57;;
679;SDS011;322;48.846;9.230;2023-06-14T08:56:01;6.77;;;6.20;;
679;SDS011;322;48.846;9.230;2023-06-14T08:58:31;6.60;;;6.00;;
679;SDS011;322;48.846;9.230;2023-06-14T09:01:00;6.90;;;6.30;;
679;SDS011;322;48.846;9.230;2023-06-14T09:03:31;7.07;;;6.47;;
679;SDS011;322;48.846;9.230;2023-06-14T09:05:59;7.07;;;6.50;;
679;SDS011;322;48.846;9.230;2023-06-14T09:08:28;7.47;;;6.77;;
679;SDS011;322;48.846;9.230;2023-06-14T09:10:57;7.07;;;6.43;;
679;SDS011;322;48.846;9.230;2023-06-14T09:13:26;6.67;;;6.10;;
679;SDS011;322;48.846;9.230;2023-06-14T09:15:57;7.40;;;6.10;;
679;SDS011;322;48.846;9.230;2023-06-14T09:18:34;7.80;;;6.77;;
679;SDS011;322;48.846;9.230;2023-06-14T09:21:03;8.47;;;6.57;;
679;SDS011;322;48.846;9.230;2023-06-14T09:23:33;8.37;;;6.17;;
679;SDS011;322;48.846;9.230;2023-06-14T09:26:07;7.93;;;7.00;;
679;SDS011;322;48.846;9.230;2023-06-14T09:28:36;7.20;;;6.13;;
679;SDS011;322;48.846;9.230;2023-06-14T09:31:08;7.53;;;6.80;;
679;SDS011;322;48.846;9.230;2023-06-14T09:33:38;6.83;;;6.33;;
679;SDS011;322;48.846;9.230;2023-06-14T09:36:09;8.20;;;6.03;;
679;SDS011;322;48.846;9.230;2023-06-14T09:38:40;7.10;;;5.90;;
679;SDS011;322;48.846;9.230;2023-06-14T09:41:08;6.33;;;5.43;;
679;SDS011;322;48.846;9.230;2023-06-14T09:43:36;6.63;;;5.87;;
679;SDS011;322;48.846;9.230;2023-06-14T09:46:08;9.47;;;5.90;;
679;SDS011;322;48.846;9.230;2023-06-14T09:48:38;7.03;;;5.60;;
679;SDS011;322;48.846;9.230;2023-06-14T09:51:09;7.70;;;6.47;;
679;SDS011;322;48.846;9.230;2023-06-14T09:53:41;7.07;;;6.47;;
679;SDS011;322;48.846;9.230;2023-06-14T09:56:11;7.80;;;6.20;;
679;SDS011;322;48.846;9.230;2023-06-14T09:58:40;6.80;;;6.10;;
679;SDS011;322;48.846;9.230;2023-06-14T10:01:16;7.53;;;6.50;;
679;SDS011;322;48.846;9.230;2023-06-14T10:03:48;6.27;;;5.60;;
679;SDS011;322;48.846;9.230;2023-06-14T10:06:22;6.20;;;5.80;;
679;SDS011;322;48.846;9.230;2023-06-14T10:08:52;6.67;;;6.00;;
679;SDS011;322;48.846;9.230;2023-06-14T10:11:22;5.70;;;5.20;;
679;SDS011;322;48.846;9.230;2023-06-14T10:13:50;5.40;;;4.90;;
679;SDS011;322;48.846;9.230;2023-06-14T10:16:20;8.20;;;5.70;;
679;SDS011;322;48.846;9.230;2023-06-14T10:19:01;5.80;;;5.33;;
679;SDS011;322;48.846;9.230;2023-06-14T10:21:37;5.73;;;5.10;;
679;SDS011;322;48.846;9.230;2023-06-14T10:24:15;6.13;;;5.53;;
679;SDS011;322;48.846;9.230;2023-06-14T10:26:54;5.87;;;5.27;;
679;SDS011;322;48.846;9.230;2023-06-14T10:29:25;6.90;;;5.17;;
679;SDS011;322;48.846;9.230;2023-06-14T10:31:59;5.77;;;5.27;;
679;SDS011;322;48.846;9.230;2023-06-14T10:34:31;5.83;;;5.30;;
679;SDS011;322;48.846;9.230;2023-06-14T10:37:03;6.63;;;5.73;;
679;SDS011;322;48.846;9.230;2023-06-14T10:39:32;6.43;;;5.60;;
679;SDS011;322;48.846;9.230;2023-06-14T10:42:05;6.17;;;5.63;;
679;SDS011;322;48.846;9.230;2023-06-14T10:44:38;7.60;;;5.77;;
679;SDS011;322;48.846;9.230;2023-06-14T10:47:11;5.87;;;5.27;;
679;SDS011;322;48.846;9.230;2023-06-14T10:49:54;5.87;;;5.37;;
679;SDS011;322;48.846;9.230;2023-06-14T10:52:24;6.10;;;5.50;;
679;SDS011;322;48.846;9.230;2023-06-14T10:55:02;6.00;;;5.30;;
679;SDS011;322;48.846;9.230;2023-06-14T10:57:39;5.93;;;5.27;;
679;SDS011;322;48.846;9.230;2023-06-14T11:00:18;5.60;;;5.10;;
679;SDS011;322;48.846;9.230;2023-06-14T11:06:00;6.93;;;5.63;;
679;SDS011;322;48.846;9.230;2023-06-14T11:08:38;7.13;;;5.30;;
679;SDS011;322;48.846;9.230;2023-06-14T11:11:38;5.90;;;5.37;;
679;SDS011;322;48.846;9.230;2023-06-14T11:14:10;5.70;;;5.20;;
679;SDS011;322;48.846;9.230;2023-06-14T11:16:38;5.70;;;5.10;;
679;SDS011;322;48.846;9.230;2023-06-14T11:19:06;5.40;;;4.90;;
679;SDS011;322;48.846;9.230;2023-06-14T11:21:39;10.73;;;5.90;;
679;SDS011;322;48.846;9.230;2023-06-14T11:24:09;5.90;;;5.10;;
679;SDS011;322;48.846;9.230;2023-06-14T11:26:38;5.33;;;4.83;;
679;SDS011;322;48.846;9.230;2023-06-14T11:29:06;5.27;;;4.77;;
679;SDS011;322;48.846;9.230;2023-06-14T11:31:34;5.67;;;4.93;;
679;SDS011;322;48.846;9.230;2023-06-14T11:34:02;9.97;;;5.57;;
679;SDS011;322;48.846;9.230;2023-06-14T11:36:33;6.53;;;4.77;;
679;SDS011;322;48.846;9.230;2023-06-14T11:39:03;6.27;;;4.90;;
679;SDS011;322;48.846;9.230;2023-06-14T11:41:34;6.10;;;5.50;;
679;SDS011;322;48.846;9.230;2023-06-14T11:44:04;5.50;;;5.10;;
679;SDS011;322;48.846;9.230;2023-06-14T11:46:33;6.70;;;5.70;;
679;SDS011;322;48.846;9.230;2023-06-14T11:49:02;6.30;;;5.63;;
679;SDS011;322;48.846;9.230;2023-06-14T11:51:33;6.27;;;5.67;;
679;SDS011;322;48.846;9.230;2023-06-14T11:54:03;5.70;;;4.70;;
679;SDS011;322;48.846;9.230;2023-06-14T11:56:33;7.30;;;5.23;;
679;SDS011;322;48.846;9.230;2023-06-14T11:59:02;8.83;;;5.00;;
679;SDS011;322;48.846;9.230;2023-06-14T12:01:35;5.83;;;5.27;;
679;SDS011;322;48.846;9.230;2023-06-14T12:04:06;5.50;;;5.10;;
679;SDS011;322;48.846;9.230;2023-06-14T12:06:34;7.60;;;5.40;;
679;SDS011;322;48.846;9.230;2023-06-14T12:09:07;5.70;;;5.20;;
679;SDS011;322;48.846;9.230;2023-06-14T12:11:40;6.87;;;5.27;;
679;SDS011;322;48.846;9.230;2023-06-14T12:14:08;7.00;;;5.50;;
679;SDS011;322;48.846;9.230;2023-06-14T12:16:38;5.80;;;5.30;;
679;SDS011;322;48.846;9.230;2023-06-14T12:19:08;6.63;;;6.03;;
679;SDS011;322;48.846;9.230;2023-06-14T12:21:40;6.77;;;6.17;;
679;SDS011;322;48.846;9.230;2023-06-14T12:24:11;7.57;;;5.90;;
679;SDS011;322;48.846;9.230;2023-06-14T12:26:40;6.47;;;5.83;;
679;SDS011;322;48.846;9.230;2023-06-14T12:29:09;7.27;;;5.60;;
679;SDS011;322;48.846;9.230;2023-06-14T12:31:39;5.03;;;4.63;;
679;SDS011;322;48.846;9.230;2023-06-14T12:34:07;5.10;;;4.70;;
679;SDS011;322;48.846;9.230;2023-06-14T12:36:36;7.33;;;5.00;;
679;SDS011;322;48.846;9.230;2023-06-14T12:39:09;5.73;;;4.80;;
679;SDS011;322;48.846;9.230;2023-06-14T12:41:37;6.50;;;5.20;;
679;SDS011;322;48.846;9.230;2023-06-14T12:44:07;9.80;;;5.10;;
679;SDS011;322;48.846;9.230;2023-06-14T12:46:36;5.13;;;4.70;;
679;SDS011;322;48.846;9.230;2023-06-14T12:49:07;5.17;;;4.70;;
679;SDS011;322;48.846;9.230;2023-06-14T12:51:35;5.93;;;5.43;;
679;SDS011;322;48.846;9.230;2023-06-14T12:54:04;6.60;;;5.20;;
679;SDS011;322;48.846;9.230;2023-06-14T12:56:33;6.80;;;5.90;;
679;SDS011;322;48.846;9.230;2023-06-14T12:59:01;7.83;;;5.67;;
679;SDS011;322;48.846;9.230;2023-06-14T13:01:29;5.50;;;5.00;;
679;SDS011;322;48.846;9.230;2023-06-14T13:03:57;5.50;;;5.00;;
679;SDS011;322;48.846;9.230;2023-06-14T13:06:25;5.80;;;5.10;;
679;SDS011;322;48.846;9.230;2023-06-14T13:08:55;5.30;;;4.90;;
679;SDS011;322;48.846;9.230;2023-06-14T13:11:25;5.47;;;4.97;;
679;SDS011;322;48.846;9.230;2023-06-14T13:13:54;8.50;;;6.00;;
679;SDS011;322;48.846;9.230;2023-06-14T13:16:23;6.13;;;5.00;;
679;SDS011;322;48.846;9.230;2023-06-14T13:18:51;5.10;;;4.60;;
679;SDS011;322;48.846;9.230;2023-06-14T13:21:22;6.10;;;5.53;;
679;SDS011;322;48.846;9.230;2023-06-14T13:23:50;5.80;;;5.30;;
679;SDS011;322;48.846;9.230;2023-06-14T13:26:18;6.70;;;5.70;;
679;SDS011;322;48.846;9.230;2023-06-14T13:28:46;6.03;;;5.53;;
679;SDS011;322;48.846;9.230;2023-06-14T13:31:15;5.57;;;5.17;;
679;SDS011;322;48.846;9.230;2023-06-14T13:33:43;7.23;;;5.40;;
679;SDS011;322;48.846;9.230;2023-06-14T13:36:11;5.20;;;4.80;;
679;SDS011;322;48.846;9.230;2023-06-14T13:38:39;5.40;;;4.90;;
679;SDS011;322;48.846;9.230;2023-06-14T13:41:07;5.37;;;4.83;;
679;SDS011;322;48.846;9.230;2023-06-14T13:43:35;6.00;;;5.40;;
679;SDS011;322;48.846;9.230;2023-06-14T13:46:03;5.67;;;5.03;;
679;SDS011;322;48.846;9.230;2023-06-14T13:48:33;5.03;;;4.53;;
679;SDS011;322;48.846;9.230;2023-06-14T13:51:01;7.27;;;5.60;;
679;SDS011;322;48.846;9.230;2023-06-14T13:53:30;5.77;;;4.80;;
679;SDS011;322;48.846;9.230;2023-06-14T13:55:58;6.27;;;4.77;;
679;SDS011;322;48.846;9.230;2023-06-14T13:58:26;5.90;;;5.40;;
679;SDS011;322;48.846;9.230;2023-06-14T14:00:55;6.50;;;5.13;;
679;SDS011;322;48.846;9.230;2023-06-14T14:03:23;7.33;;;4.93;;
679;SDS011;322;48.846;9.230;2023-06-14T14:05:52;6.83;;;6.13;;
679;SDS011;322;48.846;9.230;2023-06-14T14:08:20;7.73;;;5.03;;
679;SDS011;322;48.846;9.230;2023-06-14T14:10:48;5.40;;;4.70;;
679;SDS011;322;48.846;9.230;2023-06-14T14:13:16;6.03;;;5.60;;
679;SDS011;322;48.846;9.230;2023-06-14T14:15:44;5.77;;;4.70;;
679;SDS011;322;48.846;9.230;2023-06-14T14:18:12;5.73;;;5.23;;
679;SDS011;322;48.846;9.230;2023-06-14T14:20:41;6.37;;;5.87;;
679;SDS011;322;48.846;9.230;2023-06-14T14:23:11;6.10;;;5.50;;
679;SDS011;322;48.846;9.230;2023-06-14T14:25:39;5.37;;;4.93;;
679;SDS011;322;48.846;9.230;2023-06-14T14:28:07;5.77;;;5.17;;
679;SDS011;322;48.846;9.230;2023-06-14T14:30:35;5.33;;;4.83;;
679;SDS011;322;48.846;9.230;2023-06-14T14:33:05;9.43;;;5.53;;
679;SDS011;322;48.846;9.230;2023-06-14T14:35:34;8.77;;;4.87;;
679;SDS011;322;48.846;9.230;2023-06-14T14:38:02;6.60;;;6.00;;
679;SDS011;322;48.846;9.230;2023-06-14T14:40:32;6.33;;;5.60;;
679;SDS011;322;48.846;9.230;2023-06-14T14:43:01;6.47;;;4.80;;
679;SDS011;322;48.846;9.230;2023-06-14T14:45:29;6.50;;;4.67;;
679;SDS011;322;48.846;9.230;2023-06-14T14:47:56;5.33;;;4.93;;
679;SDS011;322;48.846;9.230;2023-06-14T14:50:25;6.03;;;5.17;;
679;SDS011;322;48.846;9.230;2023-06-14T14:52:53;7.20;;;5.00;;
679;SDS011;322;48.846;9.230;2023-06-14T14:55:21;6.03;;;4.80;;
679;SDS011;322;48.846;9.230;2023-06-14T14:57:50;5.77;;;4.97;;
679;SDS011;322;48.846;9.230;2023-06-14T15:00:18;4.67;;;4.37;;
679;SDS011;322;48.846;9.230;2023-06-14T15:02:47;6.40;;;5.53;;
679;SDS011;322;48.846;9.230;2023-06-14T15:05:15;5.33;;;4.50;;
679;SDS011;322;48.846;9.230;2023-06-14T15:07:43;5.60;;;5.20;;
679;SDS011;322;48.846;9.230;2023-06-14T15:10:12;4.70;;;4.40;;
679;SDS011;322;48.846;9.230;2023-06-14T15:12:40;5.50;;;5.00;;
679;SDS011;322;48.846;9.230;2023-06-14T15:15:10;5.63;;;4.57;;
679;SDS011;322;48.846;9.230;2023-06-14T15:17:38;5.30;;;4.90;;
679;SDS011;322;48.846;9.230;2023-06-14T15:20:06;5.77;;;5.27;;
679;SDS011;322;48.846;9.230;2023-06-14T15:22:35;6.70;;;6.00;;
679;SDS011;322;48.846;9.230;2023-06-14T15:25:03;6.10;;;5.60;;
679;SDS011;322;48.846;9.230;2023-06-14T15:27:32;5.13;;;4.60;;
679;SDS011;322;48.846;9.230;2023-06-14T15:30:00;5.53;;;5.07;;
679;SDS011;322;48.846;9.230;2023-06-14T15:32:30;7.23;;;5.10;;
679;SDS011;322;48.846;9.230;2023-06-14T15:34:59;6.20;;;5.67;;
679;SDS011;322;48.846;9.230;2023-06-14T15:37:27;7.43;;;5.30;;
679;SDS011;322;48.846;9.230;2023-06-14T15:39:55;6.00;;;5.20;;
679;SDS011;322;48.846;9.230;2023-06-14T15:42:23;5.20;;;4.70;;
679;SDS011;322;48.846;9.230;2023-06-14T15:44:51;7.23;;;4.70;;
679;SDS011;322;48.846;9.230;2023-06-14T15:47:19;8.43;;;4.90;;
679;SDS011;322;48.846;9.230;2023-06-14T15:49:48;6.80;;;5.47;;
679;SDS011;322;48.846;9.230;2023-06-14T15:52:16;5.97;;;5.47;;
679;SDS011;322;48.846;9.230;2023-06-14T15:54:44;5.83;;;5.23;;
679;SDS011;322;48.846;9.230;2023-06-14T15:57:12;5.60;;;5.20;;
679;SDS011;322;48.846;9.230;2023-06-14T15:59:40;8.10;;;4.90;;